Time;durP1;ratioP1;P1;durP2;ratioP2;P2;SDS_P1;SDS_P2;PMS_P1;PMS_P2;Temp;Humidity;BMP_temperature;BMP_pressure;BME280_temperature;BME280_humidity;BME280_pressure;Samples;Min_cycle;Max_cycle;Signal;HPM_P1;HPM_P2
2021/01/28 00:00:40;;;;;;;83.53;43.90;;;-1.30;1.00;;;;;;4882526;28;20675;-76
2021/01/28 00:03:04;;;;;;;69.53;36.10;;;-1.30;1.00;;;;;;4883942;28;20646;-75
2021/01/28 00:05:28;;;;;;;63.10;34.70;;;-1.30;11.70;;;;;;4884409;28;22596;-76
2021/01/28 00:07:50;;;;;;;62.57;34.60;;;;;;;;;;4883336;28;20614;-76
2021/01/28 00:10:15;;;;;;;59.97;31.97;;;-0.30;1.00;;;;;;4885774;28;20681;-75
2021/01/28 00:12:37;;;;;;;65.97;34.57;;;;;;;;;;4886768;28;21227;-76
2021/01/28 00:15:00;;;;;;;68.10;36.43;;;;;;;;;;4886967;28;20610;-75
2021/01/28 00:17:22;;;;;;;81.60;41.33;;;;;;;;;;4884017;28;20704;-76
2021/01/28 00:19:44;;;;;;;71.43;38.70;;;;;;;;;;4883719;28;20640;-76
2021/01/28 00:22:06;;;;;;;71.77;37.40;;;;;;;;;;4891232;28;20679;-75
2021/01/28 00:24:29;;;;;;;58.33;32.77;;;;;;;;;;4886803;28;20613;-75
2021/01/28 00:26:52;;;;;;;60.10;33.13;;;-1.20;1.00;;;;;;4884372;28;20728;-76
2021/01/28 00:29:14;;;;;;;67.27;32.80;;;;;;;;;;4892799;28;20630;-76
2021/01/28 00:31:36;;;;;;;63.57;32.67;;;;;;;;;;4881802;28;20656;-75
2021/01/28 00:33:58;;;;;;;63.03;31.83;;;;;;;;;;4890235;28;20606;-76
2021/01/28 00:36:21;;;;;;;60.47;32.23;;;;;;;;;;4884300;28;20667;-77
2021/01/28 00:38:43;;;;;;;67.57;34.83;;;;;;;;;;4886533;28;21061;-75
2021/01/28 00:41:08;;;;;;;69.00;33.33;;;-1.30;99.90;;;;;;4885901;28;20629;-75
2021/01/28 00:43:31;;;;;;;58.90;31.23;;;-1.40;1.00;;;;;;4883679;28;20639;-76
2021/01/28 00:45:54;;;;;;;64.17;31.73;;;;;;;;;;4889130;28;20589;-75
2021/01/28 00:48:16;;;;;;;59.93;31.43;;;;;;;;;;4877679;28;20660;-75
2021/01/28 00:50:40;;;;;;;61.17;29.43;;;-1.40;1.00;;;;;;4881667;28;20641;-75
2021/01/28 00:53:02;;;;;;;55.90;28.53;;;;;;;;;;4879876;28;20603;-75
2021/01/28 00:55:25;;;;;;;50.57;26.63;;;-1.50;99.90;;;;;;4887725;28;20611;-75
2021/01/28 00:57:51;;;;;;;58.30;28.23;;;;;;;;;;4890332;28;21158;-76
2021/01/28 01:00:20;;;;;;;50.57;27.07;;;-1.50;1.00;;;;;;4887797;28;21059;-76
2021/01/28 01:02:43;;;;;;;58.80;29.03;;;;;;;;;;4892707;28;20770;-75
2021/01/28 01:05:06;;;;;;;56.63;30.60;;;-1.70;1.00;;;;;;4888614;28;21013;-76
2021/01/28 01:07:29;;;;;;;58.70;27.80;;;;;;;;;;4881681;28;20659;-76
2021/01/28 01:09:51;;;;;;;57.53;28.80;;;;;;;;;;4890681;28;21559;-75
2021/01/28 01:12:14;;;;;;;56.70;29.10;;;;;;;;;;4886825;28;20617;-76
2021/01/28 01:14:36;;;;;;;55.33;28.07;;;;;;;;;;4877984;28;20623;-75
2021/01/28 01:17:00;;;;;;;67.07;32.30;;;;;;;;;;4893414;28;20618;-75
2021/01/28 01:19:27;;;;;;;66.70;33.03;;;-1.90;99.90;;;;;;4887261;28;20617;-75
2021/01/28 01:22:06;;;;;;;66.67;34.17;;;;;;;;;;4888930;28;20578;-75
2021/01/28 01:24:29;;;;;;;82.93;38.90;;;;;;;;;;4870741;28;20619;-76
2021/01/28 01:26:51;;;;;;;118.47;52.03;;;;;;;;;;4888922;28;20680;-75
2021/01/28 01:29:13;;;;;;;78.23;36.30;;;;;;;;;;4889616;28;20711;-76
2021/01/28 01:32:04;;;;;;;72.60;35.17;;;-2.10;99.90;;;;;;4879785;28;20630;-76
2021/01/28 01:34:36;;;;;;;88.50;41.17;;;;;;;;;;4887923;28;20638;-75
2021/01/28 01:37:02;;;;;;;87.37;39.47;;;;;;;;;;4885562;28;21171;-75
2021/01/28 01:39:26;;;;;;;68.40;34.33;;;;;;;;;;4886418;28;20671;-76
2021/01/28 01:41:48;;;;;;;69.40;35.53;;;;;;;;;;4870741;28;20614;-75
2021/01/28 01:44:17;;;;;;;66.67;33.77;;;;;;;;;;4885966;28;20625;-75
2021/01/28 01:46:42;;;;;;;75.60;37.70;;;;;;;;;;4883787;28;20602;-75
2021/01/28 01:49:18;;;;;;;90.77;41.60;;;-2.50;1.00;;;;;;4881557;28;20676;-75
2021/01/28 01:51:42;;;;;;;68.70;35.57;;;-2.60;1.00;;;;;;4888704;28;20603;-75
2021/01/28 01:54:26;;;;;;;68.80;33.47;;;-2.70;1.00;;;;;;4893618;28;21069;-76
2021/01/28 01:56:57;;;;;;;73.17;37.00;;;-2.80;1.00;;;;;;4883157;28;20636;-75
2021/01/28 01:59:32;;;;;;;72.17;37.23;;;-3.00;1.00;;;;;;4886622;28;20630;-75
2021/01/28 02:02:17;;;;;;;71.40;37.30;;;-3.10;99.90;;;;;;4869984;28;20642;-75
2021/01/28 02:05:03;;;;;;;66.90;34.97;;;-3.20;99.90;;;;;;4886052;28;20676;-75
2021/01/28 02:07:43;;;;;;;71.77;36.47;;;;;;;;;;4889877;28;20627;-76
2021/01/28 02:10:25;;;;;;;79.33;39.17;;;;;;;;;;4879558;28;20671;-76
2021/01/28 02:13:22;;;;;;;79.17;39.17;;;;;;;;;;4886762;28;20671;-75
2021/01/28 02:15:56;;;;;;;80.70;40.73;;;-3.60;1.00;;;;;;4887731;28;21038;-75
2021/01/28 02:18:20;;;;;;;77.83;39.00;;;;;;;;;;4878946;28;21146;-75
2021/01/28 02:21:16;;;;;;;72.53;37.10;;;-3.80;1.00;;;;;;4883701;28;20673;-76
2021/01/28 02:23:57;;;;;;;70.40;34.73;;;-3.80;1.00;;;;;;4871255;28;20632;-75
2021/01/28 02:26:25;;;;;;;67.03;35.30;;;-3.90;1.00;;;;;;4885086;28;20644;-75
2021/01/28 02:28:51;;;;;;;74.10;37.37;;;;;;;;;;4870634;28;20630;-75
2021/01/28 02:31:14;;;;;;;73.47;38.00;;;;;;;;;;4885925;28;20649;-76
2021/01/28 02:33:44;;;;;;;77.53;36.93;;;-4.10;1.00;;;;;;4885429;28;20696;-75
2021/01/28 02:36:31;;;;;;;70.87;35.43;;;-4.20;1.00;;;;;;4881230;28;20621;-74
2021/01/28 02:39:06;;;;;;;71.73;38.27;;;-4.30;1.00;;;;;;4886748;28;20629;-75
2021/01/28 02:41:29;;;;;;;70.67;35.67;;;-4.40;1.00;;;;;;4885557;28;20663;-75
2021/01/28 02:43:59;;;;;;;70.83;37.30;;;;;;;;;;4863584;28;21160;-75
2021/01/28 02:46:41;;;;;;;70.17;36.73;;;;;;;;;;4886721;28;20976;-76
2021/01/28 02:49:16;;;;;;;83.30;38.33;;;;;;;;;;4886015;28;20688;-74
2021/01/28 02:51:44;;;;;;;68.53;34.67;;;;;;;;;;4886471;28;21026;-74
2021/01/28 02:54:14;;;;;;;71.20;36.43;;;;;;;;;;4879282;28;21252;-75
2021/01/28 02:56:39;;;;;;;71.70;36.77;;;-5.20;1.00;;;;;;4881165;28;20672;-76
2021/01/28 02:59:04;;;;;;;63.90;32.67;;;-5.40;1.00;;;;;;4884044;28;20665;-74
2021/01/28 03:01:31;;;;;;;74.50;35.40;;;;;;;;;;4887632;28;21181;-74
2021/01/28 03:03:54;;;;;;;74.90;36.17;;;;;;;;;;4886748;28;21068;-75
2021/01/28 03:06:20;;;;;;;78.07;36.70;;;-5.60;1.00;;;;;;4884068;28;20618;-74
2021/01/28 03:08:54;;;;;;;78.13;37.13;;;;;;;;;;4889742;28;20634;-75
2021/01/28 03:11:48;;;;;;;79.47;36.60;;;-5.80;1.00;;;;;;4870762;28;20679;-74
2021/01/28 03:14:24;;;;;;;80.10;36.77;;;;;;;;;;4862702;28;20669;-75
2021/01/28 03:16:56;;;;;;;79.37;36.63;;;;;;;;;;4883272;28;20663;-75
2021/01/28 03:19:28;;;;;;;70.50;34.23;;;;;;;;;;4890884;28;20692;-74
2021/01/28 03:22:01;;;;;;;67.57;35.03;;;;;;;;;;4881734;28;21207;-74
2021/01/28 03:24:32;;;;;;;70.33;34.27;;;;;;;;;;4890115;28;20631;-75
2021/01/28 03:27:03;;;;;;;68.83;34.03;;;;;;;;;;4866245;28;20725;-74
2021/01/28 03:29:25;;;;;;;61.17;31.73;;;;;;;;;;4886982;28;21006;-75
2021/01/28 03:31:48;;;;;;;65.47;33.17;;;;;;;;;;4883066;28;20745;-74
2021/01/28 03:34:14;;;;;;;68.90;31.50;;;;;;;;;;4887740;28;21231;-75
2021/01/28 03:36:37;;;;;;;66.00;32.77;;;;;;;;;;4880627;28;20609;-75
2021/01/28 03:39:03;;;;;;;74.87;33.33;;;;;;;;;;4885482;28;20618;-74
2021/01/28 03:41:26;;;;;;;68.53;35.40;;;;;;;;;;4893302;28;20630;-74
2021/01/28 03:43:49;;;;;;;71.10;34.37;;;-6.60;1.00;;;;;;4886623;28;20610;-75
2021/01/28 03:46:16;;;;;;;74.50;33.73;;;;;;;;;;4884673;28;20626;-74
2021/01/28 03:48:43;;;;;;;64.67;32.77;;;;;;;;;;4886233;28;20694;-74
2021/01/28 03:51:25;;;;;;;65.60;31.80;;;;;;;;;;4872897;28;20658;-76
2021/01/28 03:54:08;;;;;;;61.23;31.03;;;;;;;;;;4875640;28;20689;-75
2021/01/28 03:56:39;;;;;;;62.67;31.20;;;;;;;;;;4886889;28;21080;-76
2021/01/28 03:59:03;;;;;;;59.17;30.27;;;;;;;;;;4863352;28;20623;-75
2021/01/28 04:02:03;;;;;;;61.30;28.97;;;;;;;;;;4870828;28;20648;-74
2021/01/28 04:04:49;;;;;;;66.83;31.10;;;;;;;;;;4884097;28;20618;-74
2021/01/28 04:07:43;;;;;;;60.13;28.70;;;;;;;;;;4866736;28;20688;-74
2021/01/28 04:10:09;;;;;;;61.73;30.87;;;-7.10;4.00;;;;;;4882620;28;20704;-75
2021/01/28 04:12:34;;;;;;;65.57;30.97;;;;;;;;;;4885087;28;20638;-77
2021/01/28 04:15:04;;;;;;;65.47;31.50;;;-7.20;6.10;;;;;;4885665;28;20669;-74
2021/01/28 04:17:30;;;;;;;64.47;30.97;;;;;;;;;;4874992;28;20612;-75
2021/01/28 04:20:08;;;;;;;65.67;29.80;;;-7.30;8.50;;;;;;4884541;28;20679;-75
2021/01/28 04:22:30;;;;;;;54.47;29.63;;;;;;;;;;4880584;28;20613;-75
2021/01/28 04:24:55;;;;;;;70.63;32.73;;;;;;;;;;4882072;28;21034;-75
2021/01/28 04:27:17;;;;;;;72.00;32.37;;;;;;;;;;4883871;28;20652;-75
2021/01/28 04:29:49;;;;;;;66.57;31.67;;;;;;;;;;4882744;28;20630;-75
2021/01/28 04:32:29;;;;;;;80.90;35.20;;;-7.10;32.80;;;;;;4878148;28;20673;-76
2021/01/28 04:35:11;;;;;;;67.87;31.67;;;-6.90;42.80;;;;;;4888361;28;20582;-74
2021/01/28 04:37:34;;;;;;;66.10;31.47;;;;;;;;;;4887865;28;20602;-74
2021/01/28 04:40:01;;;;;;;62.70;29.37;;;;;;;;;;4879299;28;20618;-75
2021/01/28 04:42:38;;;;;;;62.73;30.53;;;-6.80;53.20;;;;;;4887166;28;20672;-75
2021/01/28 04:45:00;;;;;;;75.00;34.73;;;;;;;;;;4894823;28;20643;-75
2021/01/28 04:47:23;;;;;;;68.90;31.17;;;;;;;;;;4883941;28;20634;-76
2021/01/28 04:49:54;;;;;;;63.67;29.70;;;-6.90;52.30;;;;;;4894725;28;20647;-75
2021/01/28 04:52:40;;;;;;;64.80;31.67;;;-6.90;49.80;;;;;;4885972;28;21392;-75
2021/01/28 04:55:41;;;;;;;65.70;32.53;;;-7.00;46.90;;;;;;4849604;28;20618;-75
2021/01/28 04:58:05;;;;;;;130.40;51.37;;;;;;;;;;4881054;28;20671;-75
2021/01/28 05:00:47;;;;;;;65.27;29.83;;;-7.10;44.00;;;;;;4883377;28;20649;-74
2021/01/28 05:03:23;;;;;;;67.20;31.67;;;-7.20;40.50;;;;;;4888100;28;20630;-74
2021/01/28 05:06:09;;;;;;;66.40;31.07;;;-7.30;35.20;;;;;;4889686;28;20586;-75
2021/01/28 05:08:52;;;;;;;78.47;35.13;;;;;;;;;;4889980;28;20664;-76
2021/01/28 05:11:35;;;;;;;84.63;36.13;;;-7.40;28.90;;;;;;4883234;28;20651;-75
2021/01/28 05:14:34;;;;;;;63.77;29.93;;;-7.50;27.00;;;;;;4872639;28;20662;-75
2021/01/28 05:17:29;;;;;;;65.07;29.60;;;-7.50;25.20;;;;;;4885278;28;20669;-75
2021/01/28 05:20:15;;;;;;;78.47;34.37;;;-7.60;24.70;;;;;;4893627;28;20618;-75
2021/01/28 05:23:00;;;;;;;73.57;34.20;;;-7.60;25.10;;;;;;4887874;28;20742;-75
2021/01/28 05:25:41;;;;;;;79.53;36.63;;;-7.70;26.10;;;;;;4882578;28;20746;-76
2021/01/28 05:28:30;;;;;;;72.20;34.87;;;-7.60;27.00;;;;;;4886987;28;20678;-75
2021/01/28 05:31:17;;;;;;;62.40;28.60;;;-7.60;29.30;;;;;;4886988;28;20660;-75
2021/01/28 05:33:42;;;;;;;81.10;38.43;;;-7.60;29.60;;;;;;4888376;28;20655;-73
2021/01/28 05:36:30;;;;;;;76.20;34.97;;;;;;;;;;4870529;28;21191;-74
2021/01/28 05:39:24;;;;;;;74.53;33.87;;;-7.70;33.60;;;;;;4888490;28;21191;-73
2021/01/28 05:41:49;;;;;;;75.67;37.70;;;-7.60;36.20;;;;;;4881433;28;20676;-74
2021/01/28 05:44:15;;;;;;;82.83;38.47;;;;;;;;;;4887666;28;20617;-74
2021/01/28 05:46:38;;;;;;;77.10;36.17;;;;;;;;;;4883123;28;20621;-76
2021/01/28 05:49:29;;;;;;;86.07;36.27;;;-7.70;71.20;;;;;;4885495;28;20703;-75
2021/01/28 05:52:20;;;;;;;79.97;35.73;;;-7.60;46.00;;;;;;4881088;28;21177;-75
2021/01/28 05:55:11;;;;;;;78.80;36.07;;;-7.70;46.10;;;;;;4885798;28;20704;-75
2021/01/28 05:58:03;;;;;;;83.53;37.77;;;-7.70;45.90;;;;;;4883348;28;20634;-73
2021/01/28 06:00:37;;;;;;;88.47;41.33;;;-6.70;46.40;;;;;;4885552;28;20669;-74
2021/01/28 06:03:37;;;;;;;93.23;40.37;;;-7.80;42.30;;;;;;4887853;28;20706;-75
2021/01/28 06:06:17;;;;;;;76.67;35.93;;;-7.80;41.80;;;;;;4891350;28;21141;-75
2021/01/28 06:09:13;;;;;;;80.47;37.50;;;-7.90;35.20;;;;;;4892700;28;21165;-75
2021/01/28 06:12:00;;;;;;;87.13;38.47;;;-8.00;30.40;;;;;;4884287;28;21051;-75
2021/01/28 06:14:46;;;;;;;88.53;39.50;;;-8.00;28.50;;;;;;4883390;28;21442;-73
2021/01/28 06:17:41;;;;;;;99.77;42.07;;;-8.00;28.70;;;;;;4885153;28;20638;-75
2021/01/28 06:21:02;;;;;;;92.20;39.90;;;-7.90;32.50;;;;;;4878779;28;20637;-75
2021/01/28 06:23:45;;;;;;;92.77;40.57;;;-7.80;38.10;;;;;;4881338;28;20623;-74
2021/01/28 06:26:27;;;;;;;101.17;43.60;;;-7.70;44.10;;;;;;4885580;28;20961;-76
2021/01/28 06:29:28;;;;;;;106.80;43.83;;;-7.70;48.50;;;;;;4883564;28;20626;-74
2021/01/28 06:32:05;;;;;;;90.63;41.43;;;-7.60;54.10;;;;;;4885816;28;20630;-74
2021/01/28 06:35:01;;;;;;;79.13;38.27;;;-7.60;57.50;;;;;;4890301;28;20636;-72
2021/01/28 06:38:01;;;;;;;87.20;37.87;;;-7.50;61.60;;;;;;4857182;28;20622;-75
2021/01/28 06:41:06;;;;;;;81.43;38.27;;;-7.50;64.60;;;;;;4864397;28;20726;-75
2021/01/28 06:43:47;;;;;;;85.50;38.77;;;-7.20;68.80;;;;;;4890296;28;20688;-74
2021/01/28 06:46:45;;;;;;;80.20;38.97;;;-7.10;73.40;;;;;;4881987;28;20632;-76
2021/01/28 06:49:41;;;;;;;78.83;36.33;;;-7.00;77.60;;;;;;4884300;28;20648;-73
2021/01/28 06:52:14;;;;;;;83.37;37.60;;;-6.90;80.50;;;;;;4886977;28;20666;-73
2021/01/28 06:54:45;;;;;;;91.83;37.87;;;-6.90;82.10;;;;;;4889162;28;20683;-75
2021/01/28 06:57:32;;;;;;;83.20;40.60;;;-6.80;85.40;;;;;;4896500;28;20616;-76
2021/01/28 07:00:20;;;;;;;76.20;35.03;;;-6.80;86.60;;;;;;4878404;28;20658;-76
2021/01/28 07:02:57;;;;;;;66.83;34.77;;;-6.60;89.40;;;;;;4876530;28;20649;-73
2021/01/28 07:05:56;;;;;;;70.50;35.43;;;-6.50;91.90;;;;;;4877584;28;20621;-74
2021/01/28 07:08:44;;;;;;;72.13;36.23;;;-6.20;93.70;;;;;;4875365;28;21174;-73
2021/01/28 07:11:43;;;;;;;84.43;40.90;;;-5.50;99.90;;;;;;4871810;28;20666;-75
2021/01/28 07:14:47;;;;;;;73.30;37.13;;;-5.30;99.90;;;;;;4875718;28;20625;-75
2021/01/28 07:17:35;;;;;;;68.40;35.97;;;-5.00;95.20;;;;;;4875125;28;21321;-75
2021/01/28 07:20:01;;;;;;;65.83;34.73;;;-5.00;91.30;;;;;;4880576;28;20664;-74
2021/01/28 07:22:30;;;;;;;66.03;35.97;;;-4.90;87.80;;;;;;4868388;28;20646;-75
2021/01/28 07:25:21;;;;;;;58.57;32.97;;;-4.70;86.90;;;;;;4884470;28;20634;-75
2021/01/28 07:27:56;;;;;;;65.37;34.87;;;-4.60;87.00;;;;;;4882264;28;20628;-76
2021/01/28 07:30:35;;;;;;;73.57;35.37;;;-4.40;87.60;;;;;;4881417;28;20587;-74
2021/01/28 07:32:58;;;;;;;72.27;37.50;;;-3.90;93.90;;;;;;4886992;28;20688;-75
2021/01/28 07:35:47;;;;;;;82.93;42.13;;;-3.10;99.90;;;;;;4887514;28;20637;-75
2021/01/28 07:38:53;;;;;;;88.00;47.53;;;-2.00;99.60;;;;;;4885266;28;20638;-77
2021/01/28 07:41:50;;;;;;;78.90;41.10;;;-1.00;71.80;;;;;;4881887;28;21177;-75
2021/01/28 07:44:50;;;;;;;72.00;37.33;;;-0.10;25.00;;;;;;4880003;28;20649;-74
2021/01/28 07:47:56;;;;;;;71.63;34.97;;;0.80;1.00;;;;;;4887835;28;20625;-74
2021/01/28 07:50:38;;;;;;;62.40;33.13;;;1.20;99.90;;;;;;4888482;28;21030;-74
2021/01/28 07:53:35;;;;;;;53.03;27.13;;;1.20;1.00;;;;;;4883729;28;20672;-74
2021/01/28 07:55:57;;;;;;;51.53;25.90;;;;;;;;;;4886948;28;20591;-74
2021/01/28 07:58:24;;;;;;;45.83;24.33;;;1.80;1.00;;;;;;4887450;28;20731;-74
2021/01/28 08:00:48;;;;;;;49.83;26.40;;;2.40;1.00;;;;;;4877777;28;20642;-76
2021/01/28 08:03:22;;;;;;;63.53;32.77;;;3.00;1.00;;;;;;4882299;28;20723;-75
2021/01/28 08:05:51;;;;;;;86.83;39.80;;;3.40;1.00;;;;;;4883740;28;20585;-77
2021/01/28 08:08:14;;;;;;;73.00;35.53;;;;;;;;;;4894989;28;20663;-74
2021/01/28 08:10:44;;;;;;;59.97;32.47;;;4.60;1.00;;;;;;4904017;28;20647;-75
2021/01/28 08:13:09;;;;;;;58.60;32.47;;;5.50;1.00;;;;;;4891392;28;20615;-76
2021/01/28 08:15:36;;;;;;;51.43;29.47;;;6.20;1.00;;;;;;4892745;28;20610;-76
2021/01/28 08:18:04;;;;;;;79.90;36.10;;;6.40;1.00;;;;;;4884961;28;20606;-75
2021/01/28 08:20:29;;;;;;;55.00;29.80;;;5.80;1.00;;;;;;4886034;28;20614;-79
2021/01/28 08:23:01;;;;;;;49.23;27.63;;;5.00;1.00;;;;;;4882983;28;20626;-75
2021/01/28 08:25:27;;;;;;;53.73;27.33;;;4.30;1.00;;;;;;4889747;28;20658;-79
2021/01/28 08:27:52;;;;;;;57.93;28.40;;;3.70;1.00;;;;;;4879801;28;20618;-76
2021/01/28 08:30:17;;;;;;;48.73;26.93;;;3.00;1.00;;;;;;4884706;28;20197;-75
2021/01/28 08:32:43;;;;;;;51.90;27.60;;;;;;;;;;4884597;28;21170;-76
2021/01/28 08:35:08;;;;;;;50.90;25.63;;;1.80;1.00;;;;;;4885291;28;20653;-78
2021/01/28 08:37:33;;;;;;;49.43;27.70;;;1.50;1.00;;;;;;4883803;28;20618;-75
2021/01/28 08:39:57;;;;;;;55.83;28.73;;;1.10;1.00;;;;;;4885580;28;20623;-76
2021/01/28 08:42:22;;;;;;;50.00;27.53;;;0.80;1.00;;;;;;4887681;28;20656;-75
2021/01/28 08:44:46;;;;;;;48.03;28.00;;;0.60;1.00;;;;;;4874598;28;20611;-77
2021/01/28 08:47:13;;;;;;;50.77;26.83;;;0.50;1.00;;;;;;4881105;28;20659;-75
2021/01/28 08:49:36;;;;;;;47.00;24.60;;;0.30;1.00;;;;;;4881582;28;20607;-75
2021/01/28 08:52:04;;;;;;;51.13;25.67;;;0.20;1.00;;;;;;4882933;28;21225;-76
2021/01/28 08:54:29;;;;;;;50.77;26.93;;;0.30;1.00;;;;;;4894906;28;20639;-77
2021/01/28 08:56:56;;;;;;;46.93;25.83;;;0.30;19.60;;;;;;4890733;28;21213;-77
2021/01/28 08:59:19;;;;;;;33.03;19.33;;;0.30;28.50;;;;;;4894546;28;20610;-76
2021/01/28 09:01:46;;;;;;;33.07;19.67;;;0.30;1.00;;;;;;4883348;28;20641;-73
2021/01/28 09:04:12;;;;;;;32.90;18.13;;;0.30;1.00;;;;;;4889441;28;20644;-77
2021/01/28 09:06:42;;;;;;;34.87;18.90;;;0.30;1.00;;;;;;4893006;28;20613;-77
2021/01/28 09:09:14;;;;;;;32.43;18.43;;;0.30;1.00;;;;;;4894705;28;20566;-75
2021/01/28 09:11:36;;;;;;;39.67;22.00;;;;;;;;;;4891559;28;21224;-76
2021/01/28 09:14:15;;;;;;;37.70;20.40;;;0.30;1.00;;;;;;4882869;28;20660;-76
2021/01/28 09:16:40;;;;;;;30.30;17.77;;;0.50;1.00;;;;;;4884187;28;20986;-75
2021/01/28 09:19:13;;;;;;;33.23;19.40;;;0.70;1.00;;;;;;4888452;28;20629;-76
2021/01/28 09:21:40;;;;;;;31.27;17.43;;;0.90;1.00;;;;;;4887226;28;21197;-78
2021/01/28 09:24:04;;;;;;;31.43;17.77;;;1.10;1.00;;;;;;4894065;28;20673;-73
2021/01/28 09:26:30;;;;;;;27.87;16.00;;;1.40;1.00;;;;;;4888047;28;20622;-77
2021/01/28 09:28:53;;;;;;;25.83;14.97;;;;;;;;;;4889721;28;20690;-77
2021/01/28 09:31:22;;;;;;;24.40;14.57;;;2.10;1.00;;;;;;4886869;28;20722;-77
2021/01/28 09:33:45;;;;;;;29.23;16.47;;;;;;;;;;4884165;28;20605;-76
2021/01/28 09:36:17;;;;;;;26.93;15.40;;;3.00;1.00;;;;;;4888340;28;20242;-76
2021/01/28 09:38:40;;;;;;;29.30;16.07;;;3.20;1.00;;;;;;4893702;28;20181;-76
2021/01/28 09:41:11;;;;;;;23.83;14.27;;;3.40;1.00;;;;;;4897738;28;20234;-76
2021/01/28 09:43:35;;;;;;;25.93;15.37;;;3.50;1.00;;;;;;4895683;28;20189;-78
2021/01/28 09:46:30;;;;;;;23.17;13.70;;;3.50;1.00;;;;;;4877844;28;20666;-79
2021/01/28 09:48:54;;;;;;;24.10;14.60;;;3.70;99.90;;;;;;4819585;28;20191;-79
2021/01/28 09:51:24;;;;;;;24.80;14.37;;;4.10;1.00;;;;;;4864117;28;20201;-79
2021/01/28 09:54:13;;;;;;;23.10;13.67;;;3.90;99.90;;;;;;4879032;28;20182;-76
2021/01/28 09:56:35;;;;;;;24.97;13.23;;;4.50;99.90;;;;;;4878924;28;20646;-78
2021/01/28 09:58:57;;;;;;;18.83;12.07;;;;;;;;;;4879359;28;20197;-79
2021/01/28 10:01:19;;;;;;;21.57;12.43;;;4.50;99.90;;;;;;4889572;28;20228;-80
2021/01/28 10:03:41;;;;;;;18.17;11.93;;;4.90;1.00;;;;;;4878578;28;20251;-79
2021/01/28 10:06:03;;;;;;;16.53;9.80;;;5.00;1.00;;;;;;4878926;28;20197;-77
2021/01/28 10:08:26;;;;;;;14.43;9.63;;;5.60;99.90;;;;;;4881468;28;20219;-79
2021/01/28 10:10:48;;;;;;;16.50;9.37;;;6.10;99.90;;;;;;4896385;28;20208;-79
2021/01/28 10:13:13;;;;;;;11.03;7.37;;;6.70;99.90;;;;;;4897114;28;20216;-79
2021/01/28 10:15:35;;;;;;;10.43;6.13;;;7.20;1.00;;;;;;4897728;28;20180;-79
2021/01/28 10:17:59;;;;;;;9.77;6.03;;;7.00;1.00;;;;;;4897565;28;20246;-79
2021/01/28 10:20:21;;;;;;;8.37;5.10;;;;;;;;;;4897837;28;20678;-77
2021/01/28 10:22:44;;;;;;;10.87;6.47;;;6.80;99.90;;;;;;4897021;28;20238;-79
2021/01/28 10:25:10;;;;;;;6.33;4.67;;;6.80;1.00;;;;;;4896515;28;20321;-79
2021/01/28 10:27:32;;;;;;;6.87;4.97;;;;;;;;;;4897421;28;20526;-76
2021/01/28 10:29:54;;;;;;;6.97;4.53;;;6.60;99.90;;;;;;4896507;28;20573;-79
2021/01/28 10:32:17;;;;;;;9.10;5.07;;;5.80;1.00;;;;;;4897465;28;20213;-77
2021/01/28 10:34:39;;;;;;;10.50;5.63;;;5.60;1.00;;;;;;4896535;28;20180;-80
2021/01/28 10:37:01;;;;;;;7.80;4.90;;;5.70;99.90;;;;;;4896307;28;20211;-79
2021/01/28 10:39:24;;;;;;;6.67;4.57;;;5.90;99.90;;;;;;4897328;28;20185;-78
2021/01/28 10:41:49;;;;;;;7.63;4.80;;;5.70;1.00;;;;;;4897271;28;20180;-79
2021/01/28 10:44:11;;;;;;;9.63;5.23;;;5.80;23.50;;;;;;4896717;28;20193;-79
2021/01/28 10:46:33;;;;;;;7.33;4.47;;;;;;;;;;4895806;28;20282;-77
2021/01/28 10:48:56;;;;;;;6.07;3.67;;;;;;;;;;4894099;28;20192;-78
2021/01/28 10:51:18;;;;;;;6.53;4.07;;;;;;;;;;4897270;28;20561;-79
2021/01/28 10:53:40;;;;;;;8.53;4.17;;;;;;;;;;4896651;28;20189;-82
2021/01/28 10:56:02;;;;;;;6.13;3.90;;;5.40;99.90;;;;;;4894959;28;20205;-78
2021/01/28 10:58:26;;;;;;;7.20;4.10;;;5.90;1.00;;;;;;4897483;28;20185;-79
2021/01/28 11:00:48;;;;;;;14.83;7.27;;;6.30;27.50;;;;;;4894900;28;20257;-77
2021/01/28 11:03:10;;;;;;;6.17;4.17;;;6.60;99.90;;;;;;4876029;28;20287;-78
2021/01/28 11:05:34;;;;;;;6.77;4.57;;;7.20;1.00;;;;;;4877482;28;20201;-76
2021/01/28 11:07:57;;;;;;;6.97;4.53;;;8.10;99.90;;;;;;4875855;28;20201;-79
2021/01/28 11:10:20;;;;;;;6.23;4.20;;;;;;;;;;4877296;28;20602;-81
2021/01/28 11:12:43;;;;;;;6.93;4.80;;;9.70;99.90;;;;;;4877390;28;20487;-77
2021/01/28 11:15:07;;;;;;;4.10;3.57;;;10.90;1.00;;;;;;4877956;28;20326;-77
2021/01/28 11:17:29;;;;;;;5.20;3.80;;;11.40;99.90;;;;;;4876639;28;20185;-79
2021/01/28 11:19:52;;;;;;;7.00;4.13;;;;;;;;;;4877081;28;20255;-79
2021/01/28 11:22:14;;;;;;;4.77;3.10;;;;;;;;;;4877522;28;20189;-77
2021/01/28 11:24:36;;;;;;;3.40;2.70;;;10.30;1.00;;;;;;4877450;28;20243;-79
2021/01/28 11:27:00;;;;;;;5.20;3.63;;;;;;;;;;4877458;28;20219;-78
2021/01/28 11:29:24;;;;;;;4.03;3.17;;;9.60;1.00;;;;;;4876732;28;20189;-80
2021/01/28 11:31:47;;;;;;;4.07;3.43;;;8.80;99.90;;;;;;4877168;28;20217;-78
2021/01/28 11:34:09;;;;;;;4.17;3.10;;;;;;;;;;4894159;28;20188;-76
2021/01/28 11:36:31;;;;;;;3.90;3.50;;;8.10;99.90;;;;;;4895146;28;20200;-79
2021/01/28 11:38:54;;;;;;;4.90;3.83;;;;;;;;;;4893952;28;20254;-76
2021/01/28 11:41:16;;;;;;;4.83;3.30;;;6.80;1.00;;;;;;4896335;28;20567;-78
2021/01/28 11:43:38;;;;;;;7.07;4.47;;;6.80;1.00;;;;;;4896412;28;20188;-78
2021/01/28 11:46:01;;;;;;;5.17;4.17;;;6.20;99.90;;;;;;4894938;28;20231;-78
2021/01/28 11:48:23;;;;;;;5.33;3.80;;;5.90;99.90;;;;;;4896277;28;20181;-79
2021/01/28 11:50:46;;;;;;;6.77;4.70;;;5.20;99.90;;;;;;4875148;28;20185;-75
2021/01/28 11:53:08;;;;;;;5.77;4.17;;;;;;;;;;4875608;28;20215;-76
2021/01/28 11:55:30;;;;;;;6.17;4.50;;;4.70;99.90;;;;;;4876900;28;20235;-79
2021/01/28 11:57:52;;;;;;;8.20;5.20;;;4.60;1.00;;;;;;4876556;28;20712;-77
2021/01/28 12:00:17;;;;;;;6.83;5.10;;;4.40;1.00;;;;;;4875668;28;20247;-77
2021/01/28 12:02:39;;;;;;;7.73;5.43;;;5.10;99.90;;;;;;4890728;28;20236;-78
2021/01/28 12:05:02;;;;;;;5.73;4.40;;;4.30;99.90;;;;;;4895895;28;20184;-77
2021/01/28 12:07:24;;;;;;;6.13;4.50;;;4.20;99.90;;;;;;4895961;28;20711;-79
2021/01/28 12:09:46;;;;;;;6.67;4.97;;;4.50;1.00;;;;;;4895591;28;20220;-79
2021/01/28 12:12:08;;;;;;;5.93;4.33;;;3.80;33.50;;;;;;4893124;28;20220;-77
2021/01/28 12:14:30;;;;;;;6.23;4.80;;;3.80;1.00;;;;;;4895769;28;20211;-80
2021/01/28 12:16:53;;;;;;;4.53;3.63;;;;;;;;;;4894139;28;20243;-77
2021/01/28 12:19:15;;;;;;;8.03;5.07;;;;;;;;;;4895888;28;20968;-78
2021/01/28 12:21:39;;;;;;;6.87;5.20;;;3.90;86.80;;;;;;4895245;28;20208;-76
2021/01/28 12:24:01;;;;;;;8.07;4.97;;;3.90;99.90;;;;;;4895734;28;20188;-79
2021/01/28 12:26:23;;;;;;;6.20;4.63;;;4.00;1.00;;;;;;4894551;28;20192;-78
2021/01/28 12:28:45;;;;;;;5.23;4.33;;;4.30;99.90;;;;;;4894287;28;20622;-80
2021/01/28 12:31:07;;;;;;;6.93;4.97;;;4.00;1.00;;;;;;4895865;28;20549;-80
2021/01/28 12:33:30;;;;;;;6.90;4.57;;;4.20;1.00;;;;;;4894743;28;20216;-78
2021/01/28 12:35:52;;;;;;;5.47;4.43;;;3.90;99.90;;;;;;4895398;28;20200;-78
2021/01/28 12:38:16;;;;;;;5.13;4.17;;;3.80;99.90;;;;;;4895792;28;20200;-78
2021/01/28 12:40:38;;;;;;;7.87;5.50;;;;;;;;;;4887052;28;20247;-79
2021/01/28 12:43:01;;;;;;;6.63;4.50;;;3.50;1.00;;;;;;4876063;28;20186;-78
2021/01/28 12:45:23;;;;;;;7.03;4.90;;;;;;;;;;4875750;28;20189;-79
2021/01/28 12:47:45;;;;;;;8.17;5.80;;;3.70;99.90;;;;;;4875982;28;20185;-78
2021/01/28 12:50:09;;;;;;;6.67;4.17;;;3.50;53.50;;;;;;4875642;28;20190;-78
2021/01/28 12:52:31;;;;;;;6.40;4.97;;;3.50;99.90;;;;;;4877943;28;20657;-78
2021/01/28 12:54:54;;;;;;;6.13;4.50;;;3.40;1.00;;;;;;4879290;28;20189;-76
2021/01/28 12:57:25;;;;;;;7.27;4.93;;;3.10;1.00;;;;;;4880181;28;20181;-79
2021/01/28 12:59:48;;;;;;;7.70;5.67;;;;;;;;;;4878265;28;20209;-74
2021/01/28 13:02:09;;;;;;;6.30;4.57;;;3.00;99.90;;;;;;4888312;28;20232;-77
2021/01/28 13:04:32;;;;;;;5.33;4.67;;;;;;;;;;4899179;28;20196;-76
2021/01/28 13:06:54;;;;;;;6.00;4.73;;;;;;;;;;4898508;28;20242;-76
2021/01/28 13:09:16;;;;;;;6.60;4.93;;;2.80;99.90;;;;;;4899319;28;20184;-77
2021/01/28 13:11:39;;;;;;;7.83;5.37;;;3.10;1.00;;;;;;4898852;28;20226;-77
2021/01/28 13:14:01;;;;;;;7.97;5.73;;;;;;;;;;4898975;28;20259;-78
2021/01/28 13:16:25;;;;;;;8.73;5.07;;;3.60;99.90;;;;;;4898921;28;20197;-75
2021/01/28 13:18:47;;;;;;;7.07;5.67;;;3.30;99.90;;;;;;4898805;28;20712;-74
2021/01/28 13:21:09;;;;;;;8.93;5.47;;;2.60;99.90;;;;;;4898930;28;20192;-75
2021/01/28 13:23:31;;;;;;;6.13;5.17;;;4.40;99.90;;;;;;4898856;28;20532;-75
2021/01/28 13:25:54;;;;;;;6.50;5.53;;;;;;;;;;4898894;28;20238;-74
2021/01/28 13:28:18;;;;;;;6.90;5.47;;;4.10;1.00;;;;;;4897647;28;20654;-75
2021/01/28 13:30:40;;;;;;;7.03;5.33;;;3.00;78.20;;;;;;4898650;28;20704;-74
2021/01/28 13:33:04;;;;;;;7.70;5.33;;;3.70;96.90;;;;;;4891207;28;20219;-74